Terminal Aerodrome Forecast
Issued by NWS

Home | Current Version | Previous Version | Text Only | Print | Product List | Glossary On
Versions: 1 2 3 4 5 6 7 8 9 10 11 12 13 14 15 16
000
FTUS43 KPAH 290900 AAA
TAFOWB
TAF AMD
KOWB 290930Z 2910/3006 00000KT 3SM BR MIFG SKC
     FM291400 28005KT P6SM SKC
     FM291600 29008KT P6SM SCT050
     FM300000 32003KT P6SM SKC=

USA.gov is the U.S. government's official web portal to all federal, state and local government web resources and services.